sensor_id;sensor_type;location;lat;lon;timestamp;P1;durP1;ratioP1;P2;durP2;ratioP2
79171;SDS011;68597;53.238;-1.418;2023-04-24T00:00:16;9.75;;;2.30;;
79171;SDS011;68597;53.238;-1.418;2023-04-24T00:02:42;10.27;;;2.25;;
79171;SDS011;68597;53.238;-1.418;2023-04-24T00:05:08;10.82;;;2.20;;
79171;SDS011;68597;53.238;-1.418;2023-04-24T00:07:37;7.68;;;1.73;;
79171;SDS011;68597;53.238;-1.418;2023-04-24T00:10:02;13.05;;;2.53;;
79171;SDS011;68597;53.238;-1.418;2023-04-24T00:12:29;10.82;;;2.85;;
79171;SDS011;68597;53.238;-1.418;2023-04-24T00:14:55;9.65;;;2.15;;
79171;SDS011;68597;53.238;-1.418;2023-04-24T00:17:20;14.57;;;2.28;;
79171;SDS011;68597;53.238;-1.418;2023-04-24T00:19:46;10.38;;;2.53;;
79171;SDS011;68597;53.238;-1.418;2023-04-24T00:22:12;12.60;;;3.53;;
79171;SDS011;68597;53.238;-1.418;2023-04-24T00:24:40;10.55;;;2.88;;
79171;SDS011;68597;53.238;-1.418;2023-04-24T00:27:06;11.30;;;3.10;;
79171;SDS011;68597;53.238;-1.418;2023-04-24T00:29:32;12.38;;;2.58;;
79171;SDS011;68597;53.238;-1.418;2023-04-24T00:31:57;11.63;;;2.50;;
79171;SDS011;68597;53.238;-1.418;2023-04-24T00:34:23;8.15;;;2.60;;
79171;SDS011;68597;53.238;-1.418;2023-04-24T00:36:49;9.77;;;2.60;;
79171;SDS011;68597;53.238;-1.418;2023-04-24T00:39:17;8.13;;;1.83;;
79171;SDS011;68597;53.238;-1.418;2023-04-24T00:41:45;5.28;;;1.63;;
79171;SDS011;68597;53.238;-1.418;2023-04-24T00:44:11;6.28;;;1.90;;
79171;SDS011;68597;53.238;-1.418;2023-04-24T00:46:36;6.97;;;1.75;;
79171;SDS011;68597;53.238;-1.418;2023-04-24T00:49:03;8.52;;;1.77;;
79171;SDS011;68597;53.238;-1.418;2023-04-24T00:51:30;9.05;;;1.58;;
79171;SDS011;68597;53.238;-1.418;2023-04-24T00:53:56;5.93;;;1.63;;
79171;SDS011;68597;53.238;-1.418;2023-04-24T00:56:21;3.85;;;1.50;;
79171;SDS011;68597;53.238;-1.418;2023-04-24T00:58:50;5.72;;;1.30;;
79171;SDS011;68597;53.238;-1.418;2023-04-24T01:01:16;10.68;;;2.63;;
79171;SDS011;68597;53.238;-1.418;2023-04-24T01:03:42;10.25;;;1.67;;
79171;SDS011;68597;53.238;-1.418;2023-04-24T01:06:08;6.07;;;1.10;;
79171;SDS011;68597;53.238;-1.418;2023-04-24T01:08:35;4.65;;;1.40;;
79171;SDS011;68597;53.238;-1.418;2023-04-24T01:11:03;4.18;;;1.52;;
79171;SDS011;68597;53.238;-1.418;2023-04-24T01:13:29;5.90;;;1.50;;
79171;SDS011;68597;53.238;-1.418;2023-04-24T01:15:58;6.35;;;1.45;;
79171;SDS011;68597;53.238;-1.418;2023-04-24T01:18:26;6.85;;;1.35;;
79171;SDS011;68597;53.238;-1.418;2023-04-24T01:20:53;6.65;;;1.27;;
79171;SDS011;68597;53.238;-1.418;2023-04-24T01:23:25;5.35;;;1.42;;
79171;SDS011;68597;53.238;-1.418;2023-04-24T01:25:51;6.75;;;1.35;;
79171;SDS011;68597;53.238;-1.418;2023-04-24T01:28:17;4.85;;;1.48;;
79171;SDS011;68597;53.238;-1.418;2023-04-24T01:30:43;4.82;;;1.30;;
79171;SDS011;68597;53.238;-1.418;2023-04-24T01:33:09;4.85;;;1.05;;
79171;SDS011;68597;53.238;-1.418;2023-04-24T01:35:36;5.45;;;1.30;;
79171;SDS011;68597;53.238;-1.418;2023-04-24T01:38:02;6.88;;;1.40;;
79171;SDS011;68597;53.238;-1.418;2023-04-24T01:40:30;4.30;;;1.20;;
79171;SDS011;68597;53.238;-1.418;2023-04-24T01:42:57;2.35;;;1.00;;
79171;SDS011;68597;53.238;-1.418;2023-04-24T01:45:23;5.50;;;1.15;;
79171;SDS011;68597;53.238;-1.418;2023-04-24T01:47:49;5.22;;;1.30;;
79171;SDS011;68597;53.238;-1.418;2023-04-24T01:50:16;7.13;;;1.13;;
79171;SDS011;68597;53.238;-1.418;2023-04-24T01:52:42;5.65;;;2.08;;
79171;SDS011;68597;53.238;-1.418;2023-04-24T01:55:09;4.55;;;1.30;;
79171;SDS011;68597;53.238;-1.418;2023-04-24T01:57:37;2.88;;;1.10;;
79171;SDS011;68597;53.238;-1.418;2023-04-24T02:00:04;3.50;;;0.90;;
79171;SDS011;68597;53.238;-1.418;2023-04-24T02:02:40;6.63;;;1.15;;
79171;SDS011;68597;53.238;-1.418;2023-04-24T02:05:06;7.05;;;1.50;;
79171;SDS011;68597;53.238;-1.418;2023-04-24T02:07:35;3.92;;;1.20;;
79171;SDS011;68597;53.238;-1.418;2023-04-24T02:10:01;4.35;;;0.90;;
79171;SDS011;68597;53.238;-1.418;2023-04-24T02:12:27;5.82;;;1.00;;
79171;SDS011;68597;53.238;-1.418;2023-04-24T02:14:55;4.88;;;1.20;;
79171;SDS011;68597;53.238;-1.418;2023-04-24T02:17:21;9.02;;;1.63;;
79171;SDS011;68597;53.238;-1.418;2023-04-24T02:19:47;6.28;;;1.10;;
79171;SDS011;68597;53.238;-1.418;2023-04-24T02:22:12;3.30;;;1.33;;
79171;SDS011;68597;53.238;-1.418;2023-04-24T02:24:38;7.25;;;1.10;;
79171;SDS011;68597;53.238;-1.418;2023-04-24T02:27:05;4.65;;;1.10;;
79171;SDS011;68597;53.238;-1.418;2023-04-24T02:29:31;4.63;;;1.30;;
79171;SDS011;68597;53.238;-1.418;2023-04-24T02:31:58;7.35;;;1.83;;
79171;SDS011;68597;53.238;-1.418;2023-04-24T02:34:24;4.32;;;1.10;;
79171;SDS011;68597;53.238;-1.418;2023-04-24T02:36:50;3.67;;;1.05;;
79171;SDS011;68597;53.238;-1.418;2023-04-24T02:39:16;5.82;;;1.10;;
79171;SDS011;68597;53.238;-1.418;2023-04-24T02:41:42;5.70;;;1.10;;
79171;SDS011;68597;53.238;-1.418;2023-04-24T02:44:08;4.22;;;1.13;;
79171;SDS011;68597;53.238;-1.418;2023-04-24T02:46:34;4.10;;;1.10;;
79171;SDS011;68597;53.238;-1.418;2023-04-24T02:49:02;4.18;;;1.13;;
79171;SDS011;68597;53.238;-1.418;2023-04-24T02:51:28;4.05;;;0.90;;
79171;SDS011;68597;53.238;-1.418;2023-04-24T02:53:54;4.55;;;1.42;;
79171;SDS011;68597;53.238;-1.418;2023-04-24T02:56:19;5.47;;;1.30;;
79171;SDS011;68597;53.238;-1.418;2023-04-24T02:58:45;4.32;;;1.10;;
79171;SDS011;68597;53.238;-1.418;2023-04-24T03:01:12;5.40;;;1.00;;
79171;SDS011;68597;53.238;-1.418;2023-04-24T03:03:37;5.80;;;1.50;;
79171;SDS011;68597;53.238;-1.418;2023-04-24T03:06:06;4.28;;;0.98;;
79171;SDS011;68597;53.238;-1.418;2023-04-24T03:08:32;4.07;;;1.00;;
79171;SDS011;68597;53.238;-1.418;2023-04-24T03:10:58;7.80;;;1.17;;
79171;SDS011;68597;53.238;-1.418;2023-04-24T03:13:23;7.05;;;1.08;;
79171;SDS011;68597;53.238;-1.418;2023-04-24T03:15:49;4.90;;;1.00;;
79171;SDS011;68597;53.238;-1.418;2023-04-24T03:18:15;4.15;;;1.20;;
79171;SDS011;68597;53.238;-1.418;2023-04-24T03:20:41;10.15;;;2.10;;
79171;SDS011;68597;53.238;-1.418;2023-04-24T03:23:10;3.40;;;1.42;;
79171;SDS011;68597;53.238;-1.418;2023-04-24T03:25:36;6.70;;;1.00;;
79171;SDS011;68597;53.238;-1.418;2023-04-24T03:28:03;3.15;;;1.20;;
79171;SDS011;68597;53.238;-1.418;2023-04-24T03:30:38;4.85;;;0.90;;
79171;SDS011;68597;53.238;-1.418;2023-04-24T03:33:04;5.65;;;1.13;;
79171;SDS011;68597;53.238;-1.418;2023-04-24T03:35:34;5.07;;;1.13;;
79171;SDS011;68597;53.238;-1.418;2023-04-24T03:38:03;6.72;;;1.02;;
79171;SDS011;68597;53.238;-1.418;2023-04-24T03:40:50;9.10;;;1.48;;
79171;SDS011;68597;53.238;-1.418;2023-04-24T03:43:36;5.13;;;1.40;;
79171;SDS011;68597;53.238;-1.418;2023-04-24T03:46:02;7.35;;;1.10;;
79171;SDS011;68597;53.238;-1.418;2023-04-24T03:48:31;9.45;;;1.65;;
79171;SDS011;68597;53.238;-1.418;2023-04-24T03:50:58;2.70;;;1.00;;
79171;SDS011;68597;53.238;-1.418;2023-04-24T03:53:24;4.28;;;1.00;;
79171;SDS011;68597;53.238;-1.418;2023-04-24T03:55:53;4.30;;;1.25;;
79171;SDS011;68597;53.238;-1.418;2023-04-24T03:58:19;11.55;;;1.58;;
79171;SDS011;68597;53.238;-1.418;2023-04-24T04:00:45;7.35;;;1.67;;
79171;SDS011;68597;53.238;-1.418;2023-04-24T04:03:30;5.05;;;1.20;;
79171;SDS011;68597;53.238;-1.418;2023-04-24T04:05:56;6.28;;;1.20;;
79171;SDS011;68597;53.238;-1.418;2023-04-24T04:08:22;6.07;;;1.00;;
79171;SDS011;68597;53.238;-1.418;2023-04-24T04:10:48;8.85;;;1.05;;
79171;SDS011;68597;53.238;-1.418;2023-04-24T04:13:17;6.13;;;1.88;;
79171;SDS011;68597;53.238;-1.418;2023-04-24T04:15:43;9.45;;;1.92;;
79171;SDS011;68597;53.238;-1.418;2023-04-24T04:18:09;6.50;;;1.25;;
79171;SDS011;68597;53.238;-1.418;2023-04-24T04:20:35;5.47;;;0.93;;
79171;SDS011;68597;53.238;-1.418;2023-04-24T04:23:01;4.47;;;1.20;;
79171;SDS011;68597;53.238;-1.418;2023-04-24T04:25:39;4.50;;;1.10;;
79171;SDS011;68597;53.238;-1.418;2023-04-24T04:31:02;5.97;;;1.10;;
79171;SDS011;68597;53.238;-1.418;2023-04-24T04:33:29;5.28;;;1.27;;
79171;SDS011;68597;53.238;-1.418;2023-04-24T04:35:55;8.98;;;1.67;;
79171;SDS011;68597;53.238;-1.418;2023-04-24T04:38:21;6.03;;;1.38;;
79171;SDS011;68597;53.238;-1.418;2023-04-24T04:40:56;8.02;;;1.77;;
79171;SDS011;68597;53.238;-1.418;2023-04-24T04:43:22;10.52;;;1.80;;
79171;SDS011;68597;53.238;-1.418;2023-04-24T04:45:53;4.30;;;1.02;;
79171;SDS011;68597;53.238;-1.418;2023-04-24T04:48:39;4.25;;;1.05;;
79171;SDS011;68597;53.238;-1.418;2023-04-24T04:51:06;6.70;;;1.50;;
79171;SDS011;68597;53.238;-1.418;2023-04-24T04:53:32;6.35;;;1.40;;
79171;SDS011;68597;53.238;-1.418;2023-04-24T04:55:57;3.85;;;1.00;;
79171;SDS011;68597;53.238;-1.418;2023-04-24T04:58:30;6.28;;;1.00;;
79171;SDS011;68597;53.238;-1.418;2023-04-24T05:01:00;3.75;;;1.15;;
79171;SDS011;68597;53.238;-1.418;2023-04-24T05:03:31;6.80;;;1.50;;
79171;SDS011;68597;53.238;-1.418;2023-04-24T05:06:02;6.00;;;1.00;;
79171;SDS011;68597;53.238;-1.418;2023-04-24T05:08:32;5.55;;;1.20;;
79171;SDS011;68597;53.238;-1.418;2023-04-24T05:10:59;4.97;;;1.48;;
79171;SDS011;68597;53.238;-1.418;2023-04-24T05:13:27;5.70;;;1.42;;
79171;SDS011;68597;53.238;-1.418;2023-04-24T05:15:53;6.25;;;1.20;;
79171;SDS011;68597;53.238;-1.418;2023-04-24T05:18:21;6.25;;;1.48;;
79171;SDS011;68597;53.238;-1.418;2023-04-24T05:20:47;8.27;;;1.30;;
79171;SDS011;68597;53.238;-1.418;2023-04-24T05:23:13;4.68;;;1.20;;
79171;SDS011;68597;53.238;-1.418;2023-04-24T05:25:42;6.32;;;1.50;;
79171;SDS011;68597;53.238;-1.418;2023-04-24T05:28:10;5.53;;;1.15;;
79171;SDS011;68597;53.238;-1.418;2023-04-24T05:30:38;5.30;;;1.23;;
79171;SDS011;68597;53.238;-1.418;2023-04-24T05:33:05;7.80;;;2.05;;
79171;SDS011;68597;53.238;-1.418;2023-04-24T05:35:35;4.07;;;1.13;;
79171;SDS011;68597;53.238;-1.418;2023-04-24T05:38:01;5.20;;;1.50;;
79171;SDS011;68597;53.238;-1.418;2023-04-24T05:40:27;5.10;;;1.38;;
79171;SDS011;68597;53.238;-1.418;2023-04-24T05:42:53;6.85;;;1.10;;
79171;SDS011;68597;53.238;-1.418;2023-04-24T05:45:19;6.63;;;1.70;;
79171;SDS011;68597;53.238;-1.418;2023-04-24T05:47:45;6.10;;;1.60;;
79171;SDS011;68597;53.238;-1.418;2023-04-24T05:50:11;7.18;;;1.52;;
79171;SDS011;68597;53.238;-1.418;2023-04-24T05:52:39;6.47;;;1.70;;
79171;SDS011;68597;53.238;-1.418;2023-04-24T05:55:16;8.00;;;1.60;;
79171;SDS011;68597;53.238;-1.418;2023-04-24T05:57:42;6.93;;;1.40;;
79171;SDS011;68597;53.238;-1.418;2023-04-24T06:00:09;8.32;;;2.00;;
79171;SDS011;68597;53.238;-1.418;2023-04-24T06:02:40;4.25;;;1.05;;
79171;SDS011;68597;53.238;-1.418;2023-04-24T06:05:09;6.93;;;2.00;;
79171;SDS011;68597;53.238;-1.418;2023-04-24T06:07:35;5.55;;;1.20;;
79171;SDS011;68597;53.238;-1.418;2023-04-24T06:10:06;5.88;;;1.40;;
79171;SDS011;68597;53.238;-1.418;2023-04-24T06:12:39;11.38;;;1.48;;
79171;SDS011;68597;53.238;-1.418;2023-04-24T06:15:10;5.38;;;1.38;;
79171;SDS011;68597;53.238;-1.418;2023-04-24T06:17:50;8.48;;;1.60;;
79171;SDS011;68597;53.238;-1.418;2023-04-24T06:20:17;6.82;;;1.40;;
79171;SDS011;68597;53.238;-1.418;2023-04-24T06:22:44;7.88;;;1.55;;
79171;SDS011;68597;53.238;-1.418;2023-04-24T06:25:11;6.00;;;1.30;;
79171;SDS011;68597;53.238;-1.418;2023-04-24T06:27:37;8.35;;;1.48;;
79171;SDS011;68597;53.238;-1.418;2023-04-24T06:30:03;9.52;;;1.70;;
79171;SDS011;68597;53.238;-1.418;2023-04-24T06:32:32;5.22;;;1.55;;
79171;SDS011;68597;53.238;-1.418;2023-04-24T06:34:58;7.43;;;1.60;;
79171;SDS011;68597;53.238;-1.418;2023-04-24T06:37:24;6.60;;;1.30;;
79171;SDS011;68597;53.238;-1.418;2023-04-24T06:39:50;6.43;;;1.27;;
79171;SDS011;68597;53.238;-1.418;2023-04-24T06:42:17;8.50;;;2.08;;
79171;SDS011;68597;53.238;-1.418;2023-04-24T06:44:43;9.52;;;1.80;;
79171;SDS011;68597;53.238;-1.418;2023-04-24T06:47:09;4.57;;;1.40;;
79171;SDS011;68597;53.238;-1.418;2023-04-24T06:49:36;7.82;;;1.70;;
79171;SDS011;68597;53.238;-1.418;2023-04-24T06:52:02;9.10;;;1.70;;
79171;SDS011;68597;53.238;-1.418;2023-04-24T06:54:28;6.95;;;1.63;;
79171;SDS011;68597;53.238;-1.418;2023-04-24T06:56:54;6.75;;;1.80;;
79171;SDS011;68597;53.238;-1.418;2023-04-24T06:59:22;6.32;;;1.27;;
79171;SDS011;68597;53.238;-1.418;2023-04-24T07:01:48;6.15;;;1.63;;
79171;SDS011;68597;53.238;-1.418;2023-04-24T07:04:14;6.90;;;1.60;;
79171;SDS011;68597;53.238;-1.418;2023-04-24T07:06:39;8.02;;;1.63;;
79171;SDS011;68597;53.238;-1.418;2023-04-24T07:09:05;4.90;;;1.38;;
79171;SDS011;68597;53.238;-1.418;2023-04-24T07:11:31;6.82;;;1.52;;
79171;SDS011;68597;53.238;-1.418;2023-04-24T07:13:57;6.32;;;1.88;;
79171;SDS011;68597;53.238;-1.418;2023-04-24T07:16:24;6.45;;;1.98;;
79171;SDS011;68597;53.238;-1.418;2023-04-24T07:18:50;7.63;;;1.80;;
79171;SDS011;68597;53.238;-1.418;2023-04-24T07:21:16;9.75;;;2.00;;
79171;SDS011;68597;53.238;-1.418;2023-04-24T07:23:41;9.25;;;1.92;;
79171;SDS011;68597;53.238;-1.418;2023-04-24T07:26:07;7.60;;;1.88;;
79171;SDS011;68597;53.238;-1.418;2023-04-24T07:28:33;8.68;;;2.05;;
79171;SDS011;68597;53.238;-1.418;2023-04-24T07:30:59;10.57;;;2.13;;
79171;SDS011;68597;53.238;-1.418;2023-04-24T07:33:27;11.05;;;2.08;;
79171;SDS011;68597;53.238;-1.418;2023-04-24T07:35:53;10.13;;;1.95;;
79171;SDS011;68597;53.238;-1.418;2023-04-24T07:38:19;7.35;;;2.50;;
79171;SDS011;68597;53.238;-1.418;2023-04-24T07:40:45;8.70;;;2.10;;
79171;SDS011;68597;53.238;-1.418;2023-04-24T07:43:11;7.18;;;1.85;;
79171;SDS011;68597;53.238;-1.418;2023-04-24T07:45:37;11.15;;;2.15;;
79171;SDS011;68597;53.238;-1.418;2023-04-24T07:48:02;12.95;;;2.75;;
79171;SDS011;68597;53.238;-1.418;2023-04-24T07:50:30;12.48;;;2.40;;
79171;SDS011;68597;53.238;-1.418;2023-04-24T07:52:56;11.50;;;2.42;;
79171;SDS011;68597;53.238;-1.418;2023-04-24T07:55:22;14.07;;;2.67;;
79171;SDS011;68597;53.238;-1.418;2023-04-24T07:57:48;15.05;;;2.45;;
79171;SDS011;68597;53.238;-1.418;2023-04-24T08:00:14;8.02;;;2.45;;
79171;SDS011;68597;53.238;-1.418;2023-04-24T08:02:40;11.02;;;2.50;;
79171;SDS011;68597;53.238;-1.418;2023-04-24T08:05:07;8.95;;;2.20;;
79171;SDS011;68597;53.238;-1.418;2023-04-24T08:07:35;7.80;;;2.10;;
79171;SDS011;68597;53.238;-1.418;2023-04-24T08:10:01;10.25;;;2.15;;
79171;SDS011;68597;53.238;-1.418;2023-04-24T08:12:27;10.10;;;2.45;;
79171;SDS011;68597;53.238;-1.418;2023-04-24T08:14:53;7.65;;;2.28;;
79171;SDS011;68597;53.238;-1.418;2023-04-24T08:17:19;11.93;;;2.58;;
79171;SDS011;68597;53.238;-1.418;2023-04-24T08:19:45;10.18;;;2.72;;
79171;SDS011;68597;53.238;-1.418;2023-04-24T08:22:11;11.50;;;2.42;;
79171;SDS011;68597;53.238;-1.418;2023-04-24T08:24:38;14.13;;;2.63;;
79171;SDS011;68597;53.238;-1.418;2023-04-24T08:27:04;8.93;;;1.90;;
79171;SDS011;68597;53.238;-1.418;2023-04-24T08:29:29;10.82;;;2.47;;
79171;SDS011;68597;53.238;-1.418;2023-04-24T08:31:55;14.73;;;2.72;;
79171;SDS011;68597;53.238;-1.418;2023-04-24T08:34:21;9.50;;;2.10;;
79171;SDS011;68597;53.238;-1.418;2023-04-24T08:36:47;10.13;;;3.15;;
79171;SDS011;68597;53.238;-1.418;2023-04-24T08:39:13;10.30;;;2.20;;
79171;SDS011;68597;53.238;-1.418;2023-04-24T08:41:41;10.35;;;2.17;;
79171;SDS011;68597;53.238;-1.418;2023-04-24T08:44:07;10.75;;;2.38;;
79171;SDS011;68597;53.238;-1.418;2023-04-24T08:46:34;9.02;;;1.80;;
79171;SDS011;68597;53.238;-1.418;2023-04-24T08:49:00;9.70;;;1.92;;
79171;SDS011;68597;53.238;-1.418;2023-04-24T08:51:27;10.75;;;2.40;;
79171;SDS011;68597;53.238;-1.418;2023-04-24T08:53:54;7.22;;;1.90;;
79171;SDS011;68597;53.238;-1.418;2023-04-24T08:56:20;10.32;;;2.47;;
79171;SDS011;68597;53.238;-1.418;2023-04-24T08:58:48;10.93;;;2.40;;
79171;SDS011;68597;53.238;-1.418;2023-04-24T09:01:16;9.23;;;1.83;;
79171;SDS011;68597;53.238;-1.418;2023-04-24T09:03:42;8.10;;;2.30;;
79171;SDS011;68597;53.238;-1.418;2023-04-24T09:06:08;9.88;;;2.72;;
79171;SDS011;68597;53.238;-1.418;2023-04-24T09:08:35;7.50;;;2.53;;
79171;SDS011;68597;53.238;-1.418;2023-04-24T09:11:01;12.55;;;2.90;;
79171;SDS011;68597;53.238;-1.418;2023-04-24T09:13:27;9.50;;;2.22;;
79171;SDS011;68597;53.238;-1.418;2023-04-24T09:15:55;6.90;;;2.10;;
79171;SDS011;68597;53.238;-1.418;2023-04-24T09:18:21;14.20;;;2.60;;
79171;SDS011;68597;53.238;-1.418;2023-04-24T09:20:56;11.20;;;2.20;;
79171;SDS011;68597;53.238;-1.418;2023-04-24T09:23:23;6.82;;;2.40;;
79171;SDS011;68597;53.238;-1.418;2023-04-24T09:25:53;9.93;;;2.72;;
79171;SDS011;68597;53.238;-1.418;2023-04-24T09:28:24;9.90;;;2.30;;
79171;SDS011;68597;53.238;-1.418;2023-04-24T09:31:02;13.10;;;3.10;;
79171;SDS011;68597;53.238;-1.418;2023-04-24T09:33:30;12.30;;;2.50;;
79171;SDS011;68597;53.238;-1.418;2023-04-24T09:35:56;16.13;;;3.15;;
79171;SDS011;68597;53.238;-1.418;2023-04-24T09:38:30;9.85;;;2.15;;
79171;SDS011;68597;53.238;-1.418;2023-04-24T09:40:58;9.40;;;2.60;;
79171;SDS011;68597;53.238;-1.418;2023-04-24T09:43:25;8.23;;;2.08;;
79171;SDS011;68597;53.238;-1.418;2023-04-24T09:45:53;10.48;;;2.78;;
79171;SDS011;68597;53.238;-1.418;2023-04-24T09:48:30;8.65;;;2.47;;
79171;SDS011;68597;53.238;-1.418;2023-04-24T09:50:57;7.70;;;2.60;;
79171;SDS011;68597;53.238;-1.418;2023-04-24T09:53:23;5.38;;;2.00;;
79171;SDS011;68597;53.238;-1.418;2023-04-24T09:55:49;9.77;;;2.08;;
79171;SDS011;68597;53.238;-1.418;2023-04-24T09:58:15;7.55;;;2.10;;
79171;SDS011;68597;53.238;-1.418;2023-04-24T10:00:41;6.90;;;2.30;;
79171;SDS011;68597;53.238;-1.418;2023-04-24T10:03:07;6.78;;;2.15;;
79171;SDS011;68597;53.238;-1.418;2023-04-24T10:05:35;10.32;;;2.63;;
79171;SDS011;68597;53.238;-1.418;2023-04-24T10:08:02;11.50;;;2.28;;
79171;SDS011;68597;53.238;-1.418;2023-04-24T10:10:30;8.30;;;2.83;;
79171;SDS011;68597;53.238;-1.418;2023-04-24T10:12:59;11.70;;;2.40;;
79171;SDS011;68597;53.238;-1.418;2023-04-24T10:15:24;10.55;;;2.38;;
79171;SDS011;68597;53.238;-1.418;2023-04-24T10:17:51;11.70;;;2.70;;
79171;SDS011;68597;53.238;-1.418;2023-04-24T10:20:19;12.15;;;3.08;;
79171;SDS011;68597;53.238;-1.418;2023-04-24T10:22:49;9.07;;;2.20;;
79171;SDS011;68597;53.238;-1.418;2023-04-24T10:25:16;13.32;;;2.25;;
79171;SDS011;68597;53.238;-1.418;2023-04-24T10:27:43;8.40;;;2.63;;
79171;SDS011;68597;53.238;-1.418;2023-04-24T10:30:11;10.82;;;2.58;;
79171;SDS011;68597;53.238;-1.418;2023-04-24T10:32:37;10.77;;;2.20;;
79171;SDS011;68597;53.238;-1.418;2023-04-24T10:35:03;12.48;;;2.20;;
79171;SDS011;68597;53.238;-1.418;2023-04-24T10:37:33;11.77;;;2.42;;
79171;SDS011;68597;53.238;-1.418;2023-04-24T10:40:03;9.13;;;2.38;;
79171;SDS011;68597;53.238;-1.418;2023-04-24T10:42:30;10.93;;;2.40;;
79171;SDS011;68597;53.238;-1.418;2023-04-24T10:44:55;8.45;;;1.95;;
79171;SDS011;68597;53.238;-1.418;2023-04-24T10:47:21;11.95;;;2.55;;
79171;SDS011;68597;53.238;-1.418;2023-04-24T10:49:47;7.60;;;2.10;;
79171;SDS011;68597;53.238;-1.418;2023-04-24T10:52:16;10.45;;;2.67;;
79171;SDS011;68597;53.238;-1.418;2023-04-24T10:54:42;7.30;;;2.88;;
79171;SDS011;68597;53.238;-1.418;2023-04-24T11:00:09;9.38;;;3.35;;
79171;SDS011;68597;53.238;-1.418;2023-04-24T11:02:38;9.75;;;2.58;;
79171;SDS011;68597;53.238;-1.418;2023-04-24T11:05:05;9.25;;;3.53;;
79171;SDS011;68597;53.238;-1.418;2023-04-24T11:07:39;11.00;;;2.13;;
79171;SDS011;68597;53.238;-1.418;2023-04-24T11:10:41;7.95;;;1.80;;
79171;SDS011;68597;53.238;-1.418;2023-04-24T11:15:35;6.88;;;1.42;;
79171;SDS011;68597;53.238;-1.418;2023-04-24T11:18:00;5.07;;;1.30;;
79171;SDS011;68597;53.238;-1.418;2023-04-24T11:20:26;8.85;;;2.00;;
79171;SDS011;68597;53.238;-1.418;2023-04-24T11:22:53;11.32;;;2.13;;
79171;SDS011;68597;53.238;-1.418;2023-04-24T11:25:20;11.48;;;2.70;;
79171;SDS011;68597;53.238;-1.418;2023-04-24T11:27:48;12.13;;;2.50;;
79171;SDS011;68597;53.238;-1.418;2023-04-24T11:30:16;9.70;;;2.53;;
79171;SDS011;68597;53.238;-1.418;2023-04-24T11:32:43;8.95;;;2.15;;
79171;SDS011;68597;53.238;-1.418;2023-04-24T11:35:16;8.63;;;2.50;;
79171;SDS011;68597;53.238;-1.418;2023-04-24T11:37:44;8.48;;;2.30;;
79171;SDS011;68597;53.238;-1.418;2023-04-24T11:40:12;10.77;;;2.20;;
79171;SDS011;68597;53.238;-1.418;2023-04-24T11:42:40;8.05;;;2.17;;
79171;SDS011;68597;53.238;-1.418;2023-04-24T11:45:09;12.60;;;3.00;;
79171;SDS011;68597;53.238;-1.418;2023-04-24T11:47:36;14.55;;;2.35;;
79171;SDS011;68597;53.238;-1.418;2023-04-24T11:50:07;8.95;;;2.83;;
79171;SDS011;68597;53.238;-1.418;2023-04-24T11:52:36;8.45;;;2.13;;
79171;SDS011;68597;53.238;-1.418;2023-04-24T11:55:04;10.95;;;2.92;;
79171;SDS011;68597;53.238;-1.418;2023-04-24T11:57:31;10.02;;;2.22;;
79171;SDS011;68597;53.238;-1.418;2023-04-24T11:59:57;8.68;;;2.50;;
79171;SDS011;68597;53.238;-1.418;2023-04-24T12:02:25;8.43;;;2.85;;
79171;SDS011;68597;53.238;-1.418;2023-04-24T12:04:52;11.07;;;2.30;;
79171;SDS011;68597;53.238;-1.418;2023-04-24T12:07:18;10.23;;;3.20;;
79171;SDS011;68597;53.238;-1.418;2023-04-24T12:09:45;8.15;;;2.30;;
79171;SDS011;68597;53.238;-1.418;2023-04-24T12:12:12;8.68;;;2.60;;
79171;SDS011;68597;53.238;-1.418;2023-04-24T12:17:25;10.65;;;2.42;;
79171;SDS011;68597;53.238;-1.418;2023-04-24T12:19:56;8.18;;;3.00;;
79171;SDS011;68597;53.238;-1.418;2023-04-24T12:22:23;9.05;;;2.28;;
79171;SDS011;68597;53.238;-1.418;2023-04-24T12:24:57;14.48;;;3.00;;
79171;SDS011;68597;53.238;-1.418;2023-04-24T12:27:24;12.50;;;2.88;;
79171;SDS011;68597;53.238;-1.418;2023-04-24T12:29:51;9.77;;;2.47;;
79171;SDS011;68597;53.238;-1.418;2023-04-24T12:32:18;5.38;;;1.50;;
79171;SDS011;68597;53.238;-1.418;2023-04-24T12:34:45;6.70;;;2.03;;
79171;SDS011;68597;53.238;-1.418;2023-04-24T12:37:11;4.90;;;1.50;;
79171;SDS011;68597;53.238;-1.418;2023-04-24T12:39:37;7.60;;;2.08;;
79171;SDS011;68597;53.238;-1.418;2023-04-24T12:42:03;9.68;;;1.95;;
79171;SDS011;68597;53.238;-1.418;2023-04-24T12:44:29;11.32;;;2.22;;
79171;SDS011;68597;53.238;-1.418;2023-04-24T12:46:55;8.95;;;2.50;;
79171;SDS011;68597;53.238;-1.418;2023-04-24T12:49:21;9.38;;;1.80;;
79171;SDS011;68597;53.238;-1.418;2023-04-24T12:51:48;10.05;;;2.40;;
79171;SDS011;68597;53.238;-1.418;2023-04-24T12:54:14;7.32;;;1.90;;
79171;SDS011;68597;53.238;-1.418;2023-04-24T12:56:40;6.72;;;1.75;;
79171;SDS011;68597;53.238;-1.418;2023-04-24T12:59:05;14.43;;;2.50;;
79171;SDS011;68597;53.238;-1.418;2023-04-24T13:01:31;6.53;;;1.77;;
79171;SDS011;68597;53.238;-1.418;2023-04-24T13:03:57;9.82;;;1.98;;
79171;SDS011;68597;53.238;-1.418;2023-04-24T13:06:23;7.68;;;1.73;;
79171;SDS011;68597;53.238;-1.418;2023-04-24T13:08:50;5.35;;;1.80;;
79171;SDS011;68597;53.238;-1.418;2023-04-24T13:11:16;6.13;;;2.03;;
79171;SDS011;68597;53.238;-1.418;2023-04-24T13:13:42;7.10;;;1.80;;
79171;SDS011;68597;53.238;-1.418;2023-04-24T13:16:08;7.40;;;1.83;;
79171;SDS011;68597;53.238;-1.418;2023-04-24T13:18:34;7.30;;;1.60;;
79171;SDS011;68597;53.238;-1.418;2023-04-24T13:21:00;5.07;;;1.70;;
79171;SDS011;68597;53.238;-1.418;2023-04-24T13:23:26;5.88;;;1.98;;
79171;SDS011;68597;53.238;-1.418;2023-04-24T13:25:53;8.75;;;1.42;;
79171;SDS011;68597;53.238;-1.418;2023-04-24T13:28:19;9.00;;;1.63;;
79171;SDS011;68597;53.238;-1.418;2023-04-24T13:30:45;7.10;;;1.50;;
79171;SDS011;68597;53.238;-1.418;2023-04-24T13:33:12;8.15;;;1.90;;
79171;SDS011;68597;53.238;-1.418;2023-04-24T13:35:37;9.95;;;1.80;;
79171;SDS011;68597;53.238;-1.418;2023-04-24T13:38:04;10.18;;;2.13;;
79171;SDS011;68597;53.238;-1.418;2023-04-24T13:40:30;9.63;;;2.28;;
79171;SDS011;68597;53.238;-1.418;2023-04-24T13:42:57;8.23;;;2.22;;
79171;SDS011;68597;53.238;-1.418;2023-04-24T13:45:23;11.38;;;2.17;;
79171;SDS011;68597;53.238;-1.418;2023-04-24T13:47:49;10.32;;;1.80;;
79171;SDS011;68597;53.238;-1.418;2023-04-24T13:50:15;8.02;;;2.08;;
79171;SDS011;68597;53.238;-1.418;2023-04-24T13:52:41;8.63;;;2.63;;
79171;SDS011;68597;53.238;-1.418;2023-04-24T13:55:07;7.45;;;2.20;;
79171;SDS011;68597;53.238;-1.418;2023-04-24T13:57:33;6.03;;;2.20;;
79171;SDS011;68597;53.238;-1.418;2023-04-24T14:00:00;11.27;;;2.58;;
79171;SDS011;68597;53.238;-1.418;2023-04-24T14:02:26;7.85;;;2.28;;
79171;SDS011;68597;53.238;-1.418;2023-04-24T14:04:52;10.43;;;2.50;;
79171;SDS011;68597;53.238;-1.418;2023-04-24T14:07:18;13.00;;;2.95;;
79171;SDS011;68597;53.238;-1.418;2023-04-24T14:09:44;10.02;;;2.45;;
79171;SDS011;68597;53.238;-1.418;2023-04-24T14:12:10;7.38;;;2.67;;
79171;SDS011;68597;53.238;-1.418;2023-04-24T14:14:35;8.65;;;2.30;;
79171;SDS011;68597;53.238;-1.418;2023-04-24T14:17:04;9.80;;;3.03;;
79171;SDS011;68597;53.238;-1.418;2023-04-24T14:19:30;10.77;;;2.28;;
79171;SDS011;68597;53.238;-1.418;2023-04-24T14:21:55;5.13;;;1.65;;
79171;SDS011;68597;53.238;-1.418;2023-04-24T14:24:21;12.00;;;2.30;;
79171;SDS011;68597;53.238;-1.418;2023-04-24T14:26:47;7.88;;;1.77;;
79171;SDS011;68597;53.238;-1.418;2023-04-24T14:29:13;7.05;;;1.80;;
79171;SDS011;68597;53.238;-1.418;2023-04-24T14:31:39;8.98;;;2.20;;
79171;SDS011;68597;53.238;-1.418;2023-04-24T14:34:06;9.40;;;1.77;;
79171;SDS011;68597;53.238;-1.418;2023-04-24T14:36:32;7.63;;;2.53;;
79171;SDS011;68597;53.238;-1.418;2023-04-24T14:38:57;9.40;;;2.00;;
79171;SDS011;68597;53.238;-1.418;2023-04-24T14:41:23;9.55;;;2.88;;